createdAt,value
2017-11-23T00:00:41.138Z,1001.80
2017-11-23T00:01:41.156Z,1001.80
2017-11-23T00:02:41.158Z,1001.81
2017-11-23T00:03:41.183Z,1001.79
2017-11-23T00:04:41.195Z,1001.86
2017-11-23T00:05:41.200Z,1001.86
2017-11-23T00:06:41.219Z,1001.87
2017-11-23T00:07:41.226Z,1001.87
2017-11-23T00:08:41.247Z,1001.84
2017-11-23T00:09:41.246Z,1001.90
2017-11-23T00:10:41.267Z,1001.88
2017-11-23T00:11:41.287Z,1001.90
2017-11-23T00:12:41.308Z,1001.88
2017-11-23T00:13:41.309Z,1001.85
2017-11-23T00:14:41.326Z,1001.87
2017-11-23T00:15:41.334Z,1001.86
2017-11-23T00:16:41.349Z,1001.85
2017-11-23T00:17:41.364Z,1001.85
2017-11-23T00:18:41.373Z,1001.85
2017-11-23T00:19:41.393Z,1001.84
2017-11-23T00:20:41.393Z,1001.87
2017-11-23T00:21:41.420Z,1001.85
2017-11-23T00:22:41.432Z,1001.84
2017-11-23T00:23:41.432Z,1001.91
2017-11-23T00:24:41.457Z,1001.94
2017-11-23T00:25:41.465Z,1001.88
2017-11-23T00:26:41.472Z,1001.91
2017-11-23T00:27:41.495Z,1001.92
2017-11-23T00:28:41.502Z,1001.87
2017-11-23T00:29:41.523Z,1001.87
2017-11-23T00:30:41.536Z,1001.89
2017-11-23T00:31:41.542Z,1001.87
2017-11-23T00:32:41.573Z,1001.94
2017-11-23T00:33:41.577Z,1001.91
2017-11-23T00:34:41.579Z,1001.94
2017-11-23T00:35:41.603Z,1001.97
2017-11-23T00:36:41.615Z,1001.96
2017-11-23T00:37:41.630Z,1002.00
2017-11-23T00:38:41.648Z,1001.97
2017-11-23T00:39:41.649Z,1002.01
2017-11-23T00:40:41.662Z,1002.00
2017-11-23T00:41:41.685Z,1002.01
2017-11-23T00:42:41.996Z,1001.96
2017-11-23T00:43:41.701Z,1001.97
2017-11-23T00:44:41.720Z,1001.93
2017-11-23T00:45:41.738Z,1001.91
2017-11-23T00:46:41.741Z,1001.92
2017-11-23T00:47:41.765Z,1001.91
2017-11-23T00:48:41.784Z,1001.92
2017-11-23T00:49:41.820Z,1001.91
2017-11-23T00:50:41.797Z,1001.92
2017-11-23T00:51:41.812Z,1001.89
2017-11-23T00:52:41.827Z,1001.94
2017-11-23T00:53:41.847Z,1001.91
2017-11-23T00:54:41.855Z,1001.88
2017-11-23T00:55:41.870Z,1001.89
2017-11-23T00:56:41.880Z,1001.89
2017-11-23T00:57:41.892Z,1001.88
2017-11-23T00:58:41.910Z,1001.90
2017-11-23T00:59:41.920Z,1001.92
2017-11-23T01:00:41.921Z,1001.91
2017-11-23T01:01:41.947Z,1001.89
2017-11-23T01:02:41.961Z,1001.85
2017-11-23T01:03:41.961Z,1001.91
2017-11-23T01:04:41.994Z,1001.84
2017-11-23T01:05:41.991Z,1001.84
2017-11-23T01:06:42.007Z,1001.85
2017-11-23T01:07:42.035Z,1001.80
2017-11-23T01:08:42.039Z,1001.78
2017-11-23T01:09:42.049Z,1001.79
2017-11-23T01:10:42.079Z,1001.77
2017-11-23T01:11:42.072Z,1001.75
2017-11-23T01:12:42.082Z,1001.74
2017-11-23T01:13:42.100Z,1001.73
2017-11-23T01:14:42.109Z,1001.73
2017-11-23T01:15:42.131Z,1001.77
2017-11-23T01:16:42.141Z,1001.79
2017-11-23T01:17:42.408Z,1001.81
2017-11-23T01:18:42.163Z,1001.78
2017-11-23T01:19:42.181Z,1001.79
2017-11-23T01:20:42.200Z,1001.72
2017-11-23T01:21:42.202Z,1001.75
2017-11-23T01:22:42.219Z,1001.72
2017-11-23T01:23:42.238Z,1001.68
2017-11-23T01:24:42.250Z,1001.66
2017-11-23T01:25:42.261Z,1001.67
2017-11-23T01:26:42.270Z,1001.64
2017-11-23T01:27:42.296Z,1001.59
2017-11-23T01:28:42.309Z,1001.59
2017-11-23T01:29:42.310Z,1001.55
2017-11-23T01:30:42.328Z,1001.50
2017-11-23T01:31:42.350Z,1001.49
2017-11-23T01:32:42.344Z,1001.44
2017-11-23T01:33:42.380Z,1001.46
2017-11-23T01:34:42.383Z,1001.45
2017-11-23T01:35:42.391Z,1001.45
2017-11-23T01:36:42.410Z,1001.49
2017-11-23T01:37:42.425Z,1001.53
2017-11-23T01:38:42.437Z,1001.59
2017-11-23T01:39:42.443Z,1001.57
2017-11-23T01:40:42.465Z,1001.62
2017-11-23T01:41:42.464Z,1001.59
2017-11-23T01:42:42.491Z,1001.55
2017-11-23T01:43:42.499Z,1001.50
2017-11-23T01:44:42.513Z,1001.49
2017-11-23T01:45:42.527Z,1001.48
2017-11-23T01:46:42.536Z,1001.50
2017-11-23T01:47:42.560Z,1001.46
2017-11-23T01:48:42.574Z,1001.46
2017-11-23T01:49:42.577Z,1001.43
2017-11-23T01:50:42.593Z,1001.41
2017-11-23T01:51:42.612Z,1001.41
2017-11-23T01:52:42.912Z,1001.39
2017-11-23T01:53:42.638Z,1001.32
2017-11-23T01:54:42.646Z,1001.32
2017-11-23T01:55:42.651Z,1001.28
2017-11-23T01:56:42.692Z,1001.33
2017-11-23T01:57:42.687Z,1001.34
2017-11-23T01:58:42.694Z,1001.33
2017-11-23T01:59:42.713Z,1001.31
2017-11-23T02:00:42.726Z,1001.28
2017-11-23T02:01:42.737Z,1001.32
2017-11-23T02:02:42.761Z,1001.26
2017-11-23T02:03:42.759Z,1001.26
2017-11-23T02:04:42.782Z,1001.29
2017-11-23T02:05:42.788Z,1001.24
2017-11-23T02:06:42.796Z,1001.23
2017-11-23T02:07:42.830Z,1001.20
2017-11-23T02:08:42.835Z,1001.17
2017-11-23T02:09:42.846Z,1001.18
2017-11-23T02:10:42.869Z,1001.14
2017-11-23T02:11:42.872Z,1001.16
2017-11-23T02:12:42.881Z,1001.13
2017-11-23T02:13:42.905Z,1001.14
2017-11-23T02:14:42.910Z,1001.12
2017-11-23T02:15:42.921Z,1001.10
2017-11-23T02:16:42.943Z,1001.11
2017-11-23T02:17:42.955Z,1001.06
2017-11-23T02:18:42.970Z,1001.06
2017-11-23T02:19:42.981Z,1001.07
2017-11-23T02:20:42.988Z,1001.05
2017-11-23T02:21:43.006Z,1001.09
2017-11-23T02:22:43.269Z,1001.05
2017-11-23T02:23:43.034Z,1001.02
2017-11-23T02:24:43.045Z,1001.03
2017-11-23T02:25:43.065Z,1001.02
2017-11-23T02:26:43.071Z,1001.05
2017-11-23T02:27:43.102Z,1001.04
2017-11-23T02:28:43.095Z,1000.98
2017-11-23T02:29:43.108Z,1001.00
2017-11-23T02:30:43.129Z,1000.97
2017-11-23T02:31:43.135Z,1000.94
2017-11-23T02:32:43.159Z,1000.92
2017-11-23T02:33:43.167Z,1000.89
2017-11-23T02:34:43.178Z,1000.88
2017-11-23T02:35:43.190Z,1000.85
2017-11-23T02:36:43.205Z,1000.88
2017-11-23T02:37:43.215Z,1000.90
2017-11-23T02:38:43.239Z,1000.91
2017-11-23T02:39:43.250Z,1000.87
2017-11-23T02:40:43.254Z,1000.91
2017-11-23T02:41:43.286Z,1000.88
2017-11-23T02:42:43.285Z,1000.85
2017-11-23T02:43:43.297Z,1000.89
2017-11-23T02:44:43.313Z,1000.88
2017-11-23T02:45:43.318Z,1000.88
2017-11-23T02:46:43.327Z,1000.88
2017-11-23T02:47:43.352Z,1000.90
2017-11-23T02:48:43.363Z,1000.88
2017-11-23T02:49:43.372Z,1000.90
2017-11-23T02:50:43.398Z,1000.90
2017-11-23T02:51:43.398Z,1000.84
2017-11-23T02:52:43.722Z,1000.80
2017-11-23T02:53:43.432Z,1000.75
2017-11-23T02:54:43.442Z,1000.78
2017-11-23T02:55:43.467Z,1000.81
2017-11-23T02:56:43.466Z,1000.80
2017-11-23T02:57:43.480Z,1000.83
2017-11-23T02:58:43.501Z,1000.81
2017-11-23T02:59:43.512Z,1000.85
2017-11-23T03:00:43.520Z,1000.85
2017-11-23T03:01:43.545Z,1000.84
2017-11-23T03:02:43.547Z,1000.82
2017-11-23T03:03:43.583Z,1000.84
2017-11-23T03:04:43.581Z,1000.82
2017-11-23T03:05:43.588Z,1000.81
2017-11-23T03:06:43.597Z,1000.86
2017-11-23T03:07:43.621Z,1000.85
2017-11-23T03:08:43.629Z,1000.84
2017-11-23T03:09:43.635Z,1000.81
2017-11-23T03:10:43.660Z,1000.80
2017-11-23T03:11:43.675Z,1000.80
2017-11-23T03:12:43.685Z,1000.76
2017-11-23T03:13:43.697Z,1000.78
2017-11-23T03:14:43.714Z,1000.73
2017-11-23T03:15:43.729Z,1000.71
2017-11-23T03:16:43.736Z,1000.67
2017-11-23T03:17:43.748Z,1000.73
2017-11-23T03:18:43.765Z,1000.75
2017-11-23T03:19:43.775Z,1000.76
2017-11-23T03:20:43.794Z,1000.76
2017-11-23T03:21:43.811Z,1000.81
2017-11-23T03:22:44.116Z,1000.79
2017-11-23T03:23:43.836Z,1000.73
2017-11-23T03:24:43.852Z,1000.70
2017-11-23T03:25:43.856Z,1000.77
2017-11-23T03:26:43.876Z,1000.69
2017-11-23T03:27:44.133Z,1000.70
2017-11-23T03:28:43.895Z,1000.73
2017-11-23T03:29:43.921Z,1000.67
2017-11-23T03:30:43.928Z,1000.71
2017-11-23T03:31:43.949Z,1000.70
2017-11-23T03:32:43.961Z,1000.69
2017-11-23T03:33:43.964Z,1000.69
2017-11-23T03:34:43.987Z,1000.68
2017-11-23T03:35:43.997Z,1000.68
2017-11-23T03:36:44.004Z,1000.69
2017-11-23T03:37:44.022Z,1000.71
2017-11-23T03:38:44.036Z,1000.68
2017-11-23T03:39:44.050Z,1000.73
2017-11-23T03:40:44.069Z,1000.71
2017-11-23T03:41:44.071Z,1000.72
2017-11-23T03:42:44.096Z,1000.71
2017-11-23T03:43:44.111Z,1000.69
2017-11-23T03:44:44.115Z,1000.71
2017-11-23T03:45:44.127Z,1000.72
2017-11-23T03:46:44.141Z,1000.70
2017-11-23T03:47:44.167Z,1000.67
2017-11-23T03:48:44.164Z,1000.70
2017-11-23T03:49:44.179Z,1000.71
2017-11-23T03:50:44.207Z,1000.71
2017-11-23T03:51:44.203Z,1000.72
2017-11-23T03:52:44.221Z,1000.72
2017-11-23T03:53:44.238Z,1000.73
2017-11-23T03:54:44.249Z,1000.72
2017-11-23T03:55:44.259Z,1000.75
2017-11-23T03:56:44.273Z,1000.76
2017-11-23T03:57:44.286Z,1000.75
2017-11-23T03:58:44.308Z,1000.71
2017-11-23T03:59:44.313Z,1000.71
2017-11-23T04:00:44.325Z,1000.73
2017-11-23T04:01:44.342Z,1000.75
2017-11-23T04:02:44.653Z,1000.74
2017-11-23T04:03:44.365Z,1000.75
2017-11-23T04:04:44.393Z,1000.76
2017-11-23T04:05:44.403Z,1000.76
2017-11-23T04:06:44.419Z,1000.78
2017-11-23T04:07:44.431Z,1000.77
2017-11-23T04:08:44.435Z,1000.73
2017-11-23T04:09:44.460Z,1000.68
2017-11-23T04:10:44.481Z,1000.66
2017-11-23T04:11:44.481Z,1000.68
2017-11-23T04:12:44.493Z,1000.68
2017-11-23T04:13:44.513Z,1000.68
2017-11-23T04:14:44.532Z,1000.63
2017-11-23T04:15:44.533Z,1000.68
2017-11-23T04:16:44.545Z,1000.60
2017-11-23T04:17:44.562Z,1000.58
2017-11-23T04:18:44.582Z,1000.63
2017-11-23T04:19:44.588Z,1000.65
2017-11-23T04:20:44.600Z,1000.62
2017-11-23T04:21:44.620Z,1000.60
2017-11-23T04:22:44.924Z,1000.58
2017-11-23T04:23:44.646Z,1000.57
2017-11-23T04:24:44.660Z,1000.50
2017-11-23T04:25:44.671Z,1000.52
2017-11-23T04:26:44.702Z,1000.49
2017-11-23T04:27:44.943Z,1000.42
2017-11-23T04:28:44.709Z,1000.41
2017-11-23T04:29:44.720Z,1000.41
2017-11-23T04:30:44.735Z,1000.45
2017-11-23T04:31:44.748Z,1000.42
2017-11-23T04:32:44.790Z,1000.44
2017-11-23T04:33:44.775Z,1000.45
2017-11-23T04:34:44.786Z,1000.42
2017-11-23T04:35:44.809Z,1000.41
2017-11-23T04:36:44.826Z,1000.42
2017-11-23T04:37:44.839Z,1000.44
2017-11-23T04:38:44.841Z,1000.46
2017-11-23T04:39:44.862Z,1000.47
2017-11-23T04:40:44.868Z,1000.46
2017-11-23T04:41:44.894Z,1000.55
2017-11-23T04:42:45.145Z,1000.56
2017-11-23T04:43:44.908Z,1000.62
2017-11-23T04:44:44.935Z,1000.63
2017-11-23T04:45:44.944Z,1000.60
2017-11-23T04:46:44.955Z,1000.60
2017-11-23T04:47:45.271Z,1000.50
2017-11-23T04:48:44.982Z,1000.55
2017-11-23T04:49:44.982Z,1000.53
2017-11-23T04:50:45.004Z,1000.53
2017-11-23T04:51:45.025Z,1000.53
2017-11-23T04:52:45.043Z,1000.49
2017-11-23T04:53:45.049Z,1000.50
2017-11-23T04:54:45.057Z,1000.52
2017-11-23T04:55:45.079Z,1000.47
2017-11-23T04:56:45.086Z,1000.49
2017-11-23T04:57:45.092Z,1000.45
2017-11-23T04:58:45.113Z,1000.44
2017-11-23T04:59:45.135Z,1000.39
2017-11-23T05:00:45.144Z,1000.36
2017-11-23T05:01:45.173Z,1000.45
2017-11-23T05:02:45.166Z,1000.42
2017-11-23T05:03:45.184Z,1000.41
2017-11-23T05:04:45.197Z,1000.49
2017-11-23T05:05:45.205Z,1000.45
2017-11-23T05:06:45.223Z,1000.43
2017-11-23T05:07:45.240Z,1000.43
2017-11-23T05:08:45.265Z,1000.43
2017-11-23T05:09:45.264Z,1000.51
2017-11-23T05:10:45.281Z,1000.52
2017-11-23T05:11:45.299Z,1000.50
2017-11-23T05:12:45.562Z,1000.50
2017-11-23T05:13:45.327Z,1000.47
2017-11-23T05:14:45.338Z,1000.47
2017-11-23T05:15:45.345Z,1000.48
2017-11-23T05:16:45.360Z,1000.49
2017-11-23T05:17:45.378Z,1000.50
2017-11-23T05:18:45.401Z,1000.48
2017-11-23T05:19:45.399Z,1000.46
2017-11-23T05:20:45.420Z,1000.41
2017-11-23T05:21:45.428Z,1000.49
2017-11-23T05:22:45.447Z,1000.50
2017-11-23T05:23:45.452Z,1000.52
2017-11-23T05:24:45.478Z,1000.51
2017-11-23T05:25:45.490Z,1000.50
2017-11-23T05:26:45.508Z,1000.48
2017-11-23T05:27:45.515Z,1000.46
2017-11-23T05:28:45.521Z,1000.43
2017-11-23T05:29:45.539Z,1000.44
2017-11-23T05:30:45.554Z,1000.45
2017-11-23T05:31:45.579Z,1000.42
2017-11-23T05:32:45.833Z,1000.43
2017-11-23T05:33:45.593Z,1000.49
2017-11-23T05:34:45.619Z,1000.53
2017-11-23T05:35:45.618Z,1000.54
2017-11-23T05:36:45.645Z,1000.52
2017-11-23T05:37:45.956Z,1000.56
2017-11-23T05:38:45.665Z,1000.53
2017-11-23T05:39:45.689Z,1000.51
2017-11-23T05:40:45.686Z,1000.51
2017-11-23T05:41:45.710Z,1000.49
2017-11-23T05:42:45.979Z,1000.47
2017-11-23T05:43:45.737Z,1000.45
2017-11-23T05:44:45.757Z,1000.47
2017-11-23T05:45:45.770Z,1000.52
2017-11-23T05:46:45.779Z,1000.50
2017-11-23T05:47:45.792Z,1000.52
2017-11-23T05:48:45.803Z,1000.49
2017-11-23T05:49:45.821Z,1000.47
2017-11-23T05:50:45.828Z,1000.47
2017-11-23T05:51:45.845Z,1000.41
2017-11-23T05:52:45.854Z,1000.42
2017-11-23T05:53:45.867Z,1000.44
2017-11-23T05:54:45.888Z,1000.41
2017-11-23T05:55:45.899Z,1000.42
2017-11-23T05:56:45.922Z,1000.44
2017-11-23T05:57:46.191Z,1000.52
2017-11-23T05:58:45.940Z,1000.51
2017-11-23T05:59:45.969Z,1000.55
2017-11-23T06:00:45.972Z,1000.57
2017-11-23T06:01:45.995Z,1000.56
2017-11-23T06:02:46.006Z,1000.59
2017-11-23T06:03:46.008Z,1000.61
2017-11-23T06:04:46.029Z,1000.59
2017-11-23T06:05:46.037Z,1000.56
2017-11-23T06:06:46.049Z,1000.62
2017-11-23T06:07:46.069Z,1000.58
2017-11-23T06:08:46.078Z,1000.57
2017-11-23T06:09:46.105Z,1000.54
2017-11-23T06:10:46.121Z,1000.51
2017-11-23T06:11:46.125Z,1000.54
2017-11-23T06:12:46.137Z,1000.57
2017-11-23T06:13:46.141Z,1000.55
2017-11-23T06:14:46.164Z,1000.58
2017-11-23T06:15:46.175Z,1000.58
2017-11-23T06:16:46.188Z,1000.64
2017-11-23T06:17:46.465Z,1000.69
2017-11-23T06:18:46.217Z,1000.69
2017-11-23T06:19:46.234Z,1000.75
2017-11-23T06:20:46.256Z,1000.78
2017-11-23T06:21:46.250Z,1000.79
2017-11-23T06:22:46.280Z,1000.77
2017-11-23T06:23:46.285Z,1000.68
2017-11-23T06:24:46.310Z,1000.67
2017-11-23T06:25:46.316Z,1000.62
2017-11-23T06:26:46.331Z,1000.64
2017-11-23T06:27:46.340Z,1000.57
2017-11-23T06:28:46.369Z,1000.59
2017-11-23T06:29:46.377Z,1000.55
2017-11-23T06:30:46.382Z,1000.52
2017-11-23T06:31:46.400Z,1000.51
2017-11-23T06:32:46.415Z,1000.47
2017-11-23T06:33:46.433Z,1000.40
2017-11-23T06:34:46.445Z,1000.46
2017-11-23T06:35:46.457Z,1000.40
2017-11-23T06:36:46.472Z,1000.37
2017-11-23T06:37:46.498Z,1000.31
2017-11-23T06:38:46.490Z,1000.35
2017-11-23T06:39:46.522Z,1000.36
2017-11-23T06:40:46.520Z,1000.34
2017-11-23T06:41:46.540Z,1000.42
2017-11-23T06:42:46.811Z,1000.41
2017-11-23T06:43:46.564Z,1000.45
2017-11-23T06:44:46.589Z,1000.40
2017-11-23T06:45:46.593Z,1000.38
2017-11-23T06:46:46.596Z,1000.38
2017-11-23T06:47:46.631Z,1000.37
2017-11-23T06:48:46.635Z,1000.39
2017-11-23T06:49:46.644Z,1000.42
2017-11-23T06:50:46.671Z,1000.46
2017-11-23T06:51:46.678Z,1000.51
2017-11-23T06:52:46.694Z,1000.51
2017-11-23T06:53:46.697Z,1000.52
2017-11-23T06:54:46.712Z,1000.48
2017-11-23T06:55:46.739Z,1000.49
2017-11-23T06:56:46.744Z,1000.47
2017-11-23T06:57:47.017Z,1000.49
2017-11-23T06:58:46.773Z,1000.45
2017-11-23T06:59:46.777Z,1000.53
2017-11-23T07:00:46.806Z,1000.54
2017-11-23T07:01:46.806Z,1000.52
2017-11-23T07:02:47.132Z,1000.51
2017-11-23T07:03:46.847Z,1000.48
2017-11-23T07:04:46.855Z,1000.54
2017-11-23T07:05:46.876Z,1000.53
2017-11-23T07:06:46.880Z,1000.53
2017-11-23T07:07:46.898Z,1000.55
2017-11-23T07:08:46.920Z,1000.50
2017-11-23T07:09:46.927Z,1000.54
2017-11-23T07:10:46.936Z,1000.51
2017-11-23T07:11:46.949Z,1000.53
2017-11-23T07:12:46.967Z,1000.52
2017-11-23T07:13:46.986Z,1000.49
2017-11-23T07:14:46.994Z,1000.54
2017-11-23T07:15:47.005Z,1000.55
2017-11-23T07:16:47.026Z,1000.55
2017-11-23T07:17:47.038Z,1000.52
2017-11-23T07:18:47.055Z,1000.51
2017-11-23T07:19:47.079Z,1000.49
2017-11-23T07:20:47.075Z,1000.50
2017-11-23T07:21:47.087Z,1000.52
2017-11-23T07:22:47.116Z,1000.51
2017-11-23T07:23:47.122Z,1000.53
2017-11-23T07:24:47.149Z,1000.50
2017-11-23T07:25:47.146Z,1000.56
2017-11-23T07:26:47.162Z,1000.48
2017-11-23T07:27:47.180Z,1000.50
2017-11-23T07:28:47.190Z,1000.46
2017-11-23T07:29:47.211Z,1000.38
2017-11-23T07:30:47.219Z,1000.39
2017-11-23T07:31:47.250Z,1000.36
2017-11-23T07:32:47.256Z,1000.35
2017-11-23T07:33:47.253Z,1000.36
2017-11-23T07:34:47.276Z,1000.36
2017-11-23T07:35:47.293Z,1000.36
2017-11-23T07:36:47.306Z,1000.33
2017-11-23T07:37:47.319Z,1000.33
2017-11-23T07:38:47.344Z,1000.27
2017-11-23T07:39:47.354Z,1000.26
2017-11-23T07:40:47.369Z,1000.26
2017-11-23T07:41:47.375Z,1000.23
2017-11-23T07:42:47.405Z,1000.24
2017-11-23T07:43:47.413Z,1000.28
2017-11-23T07:44:47.436Z,1000.34
2017-11-23T07:45:47.456Z,1000.31
2017-11-23T07:46:47.460Z,1000.28
2017-11-23T07:47:47.464Z,1000.29
2017-11-23T07:48:47.497Z,1000.24
2017-11-23T07:49:47.502Z,1000.28
2017-11-23T07:50:47.511Z,1000.30
2017-11-23T07:51:47.531Z,1000.29
2017-11-23T07:52:47.538Z,1000.27
2017-11-23T07:53:47.558Z,1000.26
2017-11-23T07:54:47.578Z,1000.27
2017-11-23T07:55:47.586Z,1000.28
2017-11-23T07:56:47.618Z,1000.29
2017-11-23T07:57:47.867Z,1000.36
2017-11-23T07:58:47.642Z,1000.37
2017-11-23T07:59:47.658Z,1000.36
2017-11-23T08:00:47.672Z,1000.40
2017-11-23T08:01:47.676Z,1000.36
2017-11-23T08:02:47.704Z,1000.40
2017-11-23T08:03:47.715Z,1000.39
2017-11-23T08:04:47.734Z,1000.42
2017-11-23T08:05:47.749Z,1000.42
2017-11-23T08:06:47.770Z,1000.44
2017-11-23T08:07:47.788Z,1000.42
2017-11-23T08:08:47.793Z,1000.40
2017-11-23T08:09:47.800Z,1000.43
2017-11-23T08:10:47.826Z,1000.43
2017-11-23T08:11:47.843Z,1000.46
2017-11-23T08:12:47.857Z,1000.48
2017-11-23T08:13:47.877Z,1000.50
2017-11-23T08:14:47.890Z,1000.54
2017-11-23T08:15:47.910Z,1000.57
2017-11-23T08:16:47.920Z,1000.61
2017-11-23T08:17:48.239Z,1000.51
2017-11-23T08:18:47.950Z,1000.52
2017-11-23T08:19:47.975Z,1000.52
2017-11-23T08:20:47.991Z,1000.59
2017-11-23T08:21:48.006Z,1000.53
2017-11-23T08:22:48.026Z,1000.56
2017-11-23T08:23:48.020Z,1000.55
2017-11-23T08:24:48.049Z,1000.56
2017-11-23T08:25:48.071Z,1000.56
2017-11-23T08:26:48.074Z,1000.53
2017-11-23T08:27:48.106Z,1000.51
2017-11-23T08:28:48.113Z,1000.55
2017-11-23T08:29:48.136Z,1000.44
2017-11-23T08:30:48.148Z,1000.47
2017-11-23T08:31:48.157Z,1000.46
2017-11-23T08:32:48.186Z,1000.43
2017-11-23T08:33:48.185Z,1000.40
2017-11-23T08:34:48.213Z,1000.52
2017-11-23T08:35:48.222Z,1000.46
2017-11-23T08:36:48.247Z,1000.47
2017-11-23T08:37:48.519Z,1000.43
2017-11-23T08:38:48.274Z,1000.44
2017-11-23T08:39:48.295Z,1000.49
2017-11-23T08:40:48.320Z,1000.49
2017-11-23T08:41:48.328Z,1000.49
2017-11-23T08:42:48.341Z,1000.51
2017-11-23T08:43:48.362Z,1000.58
2017-11-23T08:44:48.379Z,1000.53
2017-11-23T08:45:48.401Z,1000.61
2017-11-23T08:46:48.407Z,1000.56
2017-11-23T08:47:48.429Z,1000.66
2017-11-23T08:48:48.450Z,1000.65
2017-11-23T08:49:48.459Z,1000.62
2017-11-23T08:50:48.477Z,1000.65
2017-11-23T08:51:48.490Z,1000.63
2017-11-23T08:52:48.505Z,1000.64
2017-11-23T08:53:48.538Z,1000.76
2017-11-23T08:54:48.540Z,1000.81
2017-11-23T08:55:48.564Z,1000.85
2017-11-23T08:56:48.584Z,1000.75
2017-11-23T08:57:48.843Z,1000.74
2017-11-23T08:58:48.617Z,1000.66
2017-11-23T08:59:48.630Z,1000.74
2017-11-23T09:00:48.643Z,1000.71
2017-11-23T09:01:48.685Z,1000.73
2017-11-23T09:02:48.679Z,1000.76
2017-11-23T09:03:48.701Z,1000.72
2017-11-23T09:04:48.721Z,1000.76
2017-11-23T09:05:48.724Z,1000.74
2017-11-23T09:06:48.750Z,1000.68
2017-11-23T09:07:48.776Z,1000.65
2017-11-23T09:08:48.781Z,1000.68
2017-11-23T09:09:48.796Z,1000.71
2017-11-23T09:10:48.824Z,1000.78
2017-11-23T09:11:48.833Z,1000.76
2017-11-23T09:12:48.857Z,1000.71
2017-11-23T09:13:48.872Z,1000.70
2017-11-23T09:14:48.881Z,1000.79
2017-11-23T09:15:48.907Z,1000.82
2017-11-23T09:16:48.927Z,1000.83
2017-11-23T09:17:49.239Z,1000.79
2017-11-23T09:18:48.954Z,1000.75
2017-11-23T09:19:48.968Z,1000.71
2017-11-23T09:20:48.983Z,1000.69
2017-11-23T09:21:48.999Z,1000.70
2017-11-23T09:22:49.021Z,1000.77
2017-11-23T09:23:49.035Z,1000.76
2017-11-23T09:24:49.060Z,1000.79
2017-11-23T09:25:49.079Z,1000.81
2017-11-23T09:26:49.107Z,1000.83
2017-11-23T09:27:49.109Z,1000.87
2017-11-23T09:28:49.136Z,1000.96
2017-11-23T09:29:49.146Z,1000.99
2017-11-23T09:30:49.161Z,1000.96
2017-11-23T09:31:49.187Z,1001.07
2017-11-23T09:32:49.213Z,1001.00
2017-11-23T09:33:49.227Z,1000.96
2017-11-23T09:34:49.238Z,1001.03
2017-11-23T09:35:49.253Z,1000.95
2017-11-23T09:36:49.281Z,1000.90
2017-11-23T09:37:49.281Z,1000.94
2017-11-23T09:38:49.302Z,1001.00
2017-11-23T09:39:49.328Z,1001.01
2017-11-23T09:40:49.352Z,1000.85
2017-11-23T09:41:49.362Z,1000.78
2017-11-23T09:42:49.381Z,1000.67
2017-11-23T09:43:49.407Z,1000.66
2017-11-23T09:44:49.422Z,1000.60
2017-11-23T09:45:49.445Z,1000.60
2017-11-23T09:46:49.448Z,1000.62
2017-11-23T09:47:49.473Z,1000.61
2017-11-23T09:48:49.488Z,1000.55
2017-11-23T09:49:49.508Z,1000.46
2017-11-23T09:50:49.526Z,1000.58
2017-11-23T09:51:49.541Z,1000.62
2017-11-23T09:52:49.574Z,1000.49
2017-11-23T09:53:49.576Z,1000.58
2017-11-23T09:54:49.592Z,1000.44
2017-11-23T09:55:49.629Z,1000.49
2017-11-23T09:56:49.636Z,1000.53
2017-11-23T09:57:49.900Z,1000.56
2017-11-23T09:58:49.676Z,1000.55
2017-11-23T09:59:49.696Z,1000.61
2017-11-23T10:00:49.720Z,1000.74
2017-11-23T10:01:49.723Z,1000.71
2017-11-23T10:02:49.740Z,1000.69
2017-11-23T10:03:49.770Z,1000.77
2017-11-23T10:04:49.786Z,1000.71
2017-11-23T10:05:49.803Z,1000.71
2017-11-23T10:06:49.817Z,1000.67
2017-11-23T10:07:49.842Z,1000.72
2017-11-23T10:08:49.880Z,1000.77
2017-11-23T10:09:49.877Z,1000.69
2017-11-23T10:10:49.900Z,1000.63
2017-11-23T10:11:49.907Z,1000.63
2017-11-23T10:12:49.939Z,1000.65
2017-11-23T10:13:49.942Z,1000.55
2017-11-23T10:14:49.965Z,1000.49
2017-11-23T10:15:49.983Z,1000.59
2017-11-23T10:16:50.006Z,1000.57
2017-11-23T10:17:50.265Z,1000.52
2017-11-23T10:18:50.049Z,1000.42
2017-11-23T10:19:50.060Z,1000.55
2017-11-23T10:20:50.085Z,1000.54
2017-11-23T10:21:50.096Z,1000.46
2017-11-23T10:22:50.103Z,1000.46
2017-11-23T10:23:50.128Z,1000.46
2017-11-23T10:24:50.147Z,1000.52
2017-11-23T10:25:50.161Z,1000.57
2017-11-23T10:26:50.180Z,1000.47
2017-11-23T10:27:50.203Z,1000.48
2017-11-23T10:28:50.226Z,1000.41
2017-11-23T10:29:50.244Z,1000.42
2017-11-23T10:30:50.251Z,1000.43
2017-11-23T10:31:50.277Z,1000.49
2017-11-23T10:32:50.301Z,1000.53
2017-11-23T10:33:50.313Z,1000.51
2017-11-23T10:34:50.334Z,1000.45
2017-11-23T10:35:50.356Z,1000.40
2017-11-23T10:36:50.382Z,1000.42
2017-11-23T10:37:50.703Z,1000.44
2017-11-23T10:38:50.401Z,1000.34
2017-11-23T10:39:50.429Z,1000.39
2017-11-23T10:40:50.445Z,1000.34
2017-11-23T10:41:50.470Z,1000.38
2017-11-23T10:42:50.493Z,1000.36
2017-11-23T10:43:50.491Z,1000.41
2017-11-23T10:44:50.514Z,1000.51
2017-11-23T10:45:50.533Z,1000.45
2017-11-23T10:46:50.561Z,1000.39
2017-11-23T10:47:50.578Z,1000.34
2017-11-23T10:48:50.588Z,1000.37
2017-11-23T10:49:50.615Z,1000.32
2017-11-23T10:50:50.640Z,1000.22
2017-11-23T10:51:50.650Z,1000.23
2017-11-23T10:52:50.678Z,1000.16
2017-11-23T10:53:50.680Z,1000.18
2017-11-23T10:54:50.700Z,1000.15
2017-11-23T10:55:50.724Z,1000.11
2017-11-23T10:56:50.742Z,1000.07
2017-11-23T10:57:50.757Z,1000.15
2017-11-23T10:58:50.783Z,1000.10
2017-11-23T10:59:50.794Z,1000.19
2017-11-23T11:00:50.828Z,1000.30
2017-11-23T11:01:50.838Z,1000.30
2017-11-23T11:02:50.850Z,1000.30
2017-11-23T11:03:50.873Z,1000.22
2017-11-23T11:04:50.895Z,1000.39
2017-11-23T11:05:50.917Z,1000.30
2017-11-23T11:06:50.935Z,1000.25
2017-11-23T11:07:50.954Z,1000.27
2017-11-23T11:08:50.969Z,1000.30
2017-11-23T11:09:50.989Z,1000.24
2017-11-23T11:10:51.007Z,1000.26
2017-11-23T11:11:51.032Z,1000.21
2017-11-23T11:12:51.053Z,1000.09
2017-11-23T11:13:51.070Z,1000.14
2017-11-23T11:14:51.089Z,1000.24
2017-11-23T11:15:51.107Z,1000.28
2017-11-23T11:16:51.127Z,1000.20
2017-11-23T11:17:51.398Z,1000.18
2017-11-23T11:18:51.167Z,1000.15
2017-11-23T11:19:51.179Z,1000.09
2017-11-23T11:20:51.194Z,1000.12
2017-11-23T11:21:51.228Z,1000.13
2017-11-23T11:22:51.245Z,1000.18
2017-11-23T11:23:51.267Z,1000.03
2017-11-23T11:24:51.286Z,999.98
2017-11-23T11:25:51.294Z,1000.02
2017-11-23T11:26:51.311Z,1000.06
2017-11-23T11:27:51.342Z,1000.03
2017-11-23T11:28:51.361Z,1000.00
2017-11-23T11:29:51.403Z,1000.05
2017-11-23T11:30:51.408Z,1000.02
2017-11-23T11:31:51.407Z,999.99
2017-11-23T11:32:51.436Z,1000.01
2017-11-23T11:33:51.448Z,1000.00
2017-11-23T11:34:51.467Z,999.99
2017-11-23T11:35:51.494Z,999.99
2017-11-23T11:36:51.513Z,999.98
2017-11-23T11:37:51.528Z,999.88
2017-11-23T11:38:51.547Z,999.96
2017-11-23T11:39:51.572Z,1000.03
2017-11-23T11:40:51.587Z,1000.02
2017-11-23T11:41:51.604Z,1000.08
2017-11-23T11:42:51.645Z,1000.12
2017-11-23T11:43:51.653Z,1000.16
2017-11-23T11:44:51.676Z,1000.15
2017-11-23T11:45:51.683Z,1000.17
2017-11-23T11:46:51.712Z,1000.21
2017-11-23T11:47:51.734Z,1000.20
2017-11-23T11:48:51.749Z,1000.24
2017-11-23T11:49:51.765Z,1000.16
2017-11-23T11:50:51.788Z,1000.18
2017-11-23T11:51:51.808Z,1000.13
2017-11-23T11:52:51.824Z,1000.09
2017-11-23T11:53:51.848Z,1000.03
2017-11-23T11:54:51.862Z,999.98
2017-11-23T11:55:51.883Z,999.95
2017-11-23T11:56:51.907Z,999.98
2017-11-23T11:57:52.174Z,1000.09
2017-11-23T11:58:51.945Z,1000.11
2017-11-23T11:59:51.958Z,1000.02
2017-11-23T12:00:51.988Z,1000.01
2017-11-23T12:01:52.002Z,999.99
2017-11-23T12:02:52.030Z,1000.00
2017-11-23T12:03:52.045Z,999.96
2017-11-23T12:04:52.072Z,999.91
2017-11-23T12:05:52.087Z,999.93
2017-11-23T12:06:52.090Z,999.91